CW1839 Catania IT current weather conditions

sailwx.info

Wind from 267 at 0 knots

Air temperature 15.0° C
Dewpoint 12.1° C

Last reported at 2019-Dec-06 07:45 UTC.
Time now 2019-Dec-06 08:37 UTC

Location: N 37°30' E 015°06'.
View on Google Maps.

See reports from other nearby stations

  
Tides and Currents Weather Stations Pressure Air Temp Water Temp Dewpoint Dewpoint Depression Visibility Wind Speed Wind Dir Waves Ship Positions
date/time (UTC)wind fromknots sea level pressurealtimeterstation pressurevisibilityair tempwater tempwave heightnotes
2019-Dec-06 07:45 267 0 15.0
2019-Dec-06 07:15 237 13.9
2019-Dec-06 07:00 275 13.3
2019-Dec-06 06:15 312 12.8
2019-Dec-06 06:00 312 12.8
2019-Dec-06 05:45 312 12.2
2019-Dec-06 05:15 313 12.8
2019-Dec-06 05:00 313 12.2
2019-Dec-06 04:30 313 12.8
2019-Dec-06 04:15 313 12.8
2019-Dec-06 04:00 313 12.8
2019-Dec-06 03:45 313 12.8
2019-Dec-06 03:30 313 12.8
2019-Dec-06 03:15 326 12.8
2019-Dec-06 02:45 326 13.3
2019-Dec-06 02:30 326 13.3
2019-Dec-06 02:00 326 13.9
2019-Dec-06 01:15 326 13.9
2019-Dec-06 01:00 326 14.4
2019-Dec-06 00:45 326 14.4
2019-Dec-06 00:00 316 14.4
2019-Dec-05 23:15 344 14.4
2019-Dec-05 23:00 344 14.4
2019-Dec-05 22:45 344 14.4
2019-Dec-05 22:30 344 14.4
2019-Dec-05 22:15 344 14.4
2019-Dec-05 22:00 344 14.4
2019-Dec-05 21:45 344 14.4
2019-Dec-05 21:30 329 14.4
2019-Dec-05 21:00 330 14.4
2019-Dec-05 20:45 14.4
2019-Dec-05 20:15 335 14.4
2019-Dec-05 19:45 003 14.4
2019-Dec-05 19:30 326 14.4
2019-Dec-05 19:00 329 14.4
2019-Dec-05 18:15 342 2 14.4
2019-Dec-05 18:00 006 2 14.4
2019-Dec-05 17:45 359 2 14.4
2019-Dec-05 17:30 001 4 13.9
2019-Dec-05 17:15 044 6 13.9
2019-Dec-05 17:00 007 5 14.4
2019-Dec-05 16:45 040 5 14.4
2019-Dec-05 16:30 14.4
2019-Dec-05 16:15 004 4 15.0
2019-Dec-05 16:00 034 3 15.0
2019-Dec-05 15:45 021 3 15.0
2019-Dec-05 15:30 006 3 15.0
2019-Dec-05 15:15 014 3 15.0
2019-Dec-05 15:00 014 3 15.0
2019-Dec-05 14:45 352 2 15.6
2019-Dec-05 14:30 342 2 15.6
2019-Dec-05 14:15 018 2 15.6
2019-Dec-05 14:00 15.6
2019-Dec-05 13:45 15.0
2019-Dec-05 13:30 023 2 15.0
2019-Dec-05 13:16 003 3 15.0
2019-Dec-05 13:01 011 4 15.0
2019-Dec-05 12:45 15.6
2019-Dec-05 12:30 003 2 15.0
2019-Dec-05 12:15 049 1 15.0
2019-Dec-05 12:00 004 1 15.0
2019-Dec-05 11:30 037 2 15.0
2019-Dec-05 11:00
2019-Dec-05 01:16 062 6 11.7
2019-Dec-05 00:45 049 6 11.7
2019-Dec-05 00:16 065 5 11.7
2019-Dec-05 00:00 055 5 11.7
2019-Dec-04 23:30 055 8 11.7
2019-Dec-04 23:15 075 6 11.7
2019-Dec-04 22:45 061 6 11.7
2019-Dec-04 22:30 051 6 11.7
2019-Dec-04 22:15 049 6 11.7
2019-Dec-04 21:45 055 2 12.2
2019-Dec-04 21:30 058 4 12.2
2019-Dec-04 21:15 100 12.2
2019-Dec-04 21:00 069 3 12.2
2019-Dec-04 20:45 031 5 12.2
2019-Dec-04 20:30 064 6 12.2
2019-Dec-04 20:15 064 7 12.2
2019-Dec-04 20:01 062 6 12.2
2019-Dec-04 19:45 058 6 12.2
2019-Dec-04 19:15 086 5 12.2
2019-Dec-04 19:00 073 4 12.2
2019-Dec-04 18:45 075 3 12.2
2019-Dec-04 18:15 071 5 12.2
2019-Dec-04 18:00 076 6 12.2
2019-Dec-04 17:45 093 6 11.7
2019-Dec-04 17:34 076 6 11.7
2019-Dec-04 17:17 069 5 11.7
2019-Dec-04 17:02 079 5 11.7
2019-Dec-04 16:45 089 4 12.2
2019-Dec-04 16:30 061 6 12.2
2019-Dec-04 16:15 065 5 12.2
2019-Dec-04 16:00 056 6 12.2
2019-Dec-04 15:15 037 6 12.2
2019-Dec-04 15:00 075 7 12.2
2019-Dec-04 14:45 072 6 12.2
2019-Dec-04 14:30 065 7 12.2
2019-Dec-04 14:15 014 6 12.2
2019-Dec-04 13:45 061 6 12.2
2019-Dec-04 13:30 058 7 12.2
2019-Dec-04 13:15 054 7 12.2
2019-Dec-04 13:00 072 6 12.8
2019-Dec-04 12:45 088 6 12.8
2019-Dec-04 12:15 031 6 12.8
2019-Dec-04 12:00 054 6 12.8
2019-Dec-04 11:45 051 7 12.8
2019-Dec-04 11:31 075 7 12.8
2019-Dec-04 11:15 066 8 12.8
2019-Dec-04 11:01 089 7 12.8
2019-Dec-04 10:45 058 8 12.8
2019-Dec-04 10:16 078 7 12.8
2019-Dec-04 10:00 056 8 12.8
2019-Dec-04 09:45 065 6 12.8
2019-Dec-04 09:30 069 6 12.8
2019-Dec-04 09:15 082 6 12.2
2019-Dec-04 09:00 069 6 12.2
2019-Dec-04 08:45 078 6 12.2
2019-Dec-04 08:30 071 7 12.8
2019-Dec-04 08:15 061 6 12.8
2019-Dec-04 08:00 055 6 12.8